Bauru Airport


Codes: SBBU/BAU
Name: Bauru Airport
City: Bauru
Country: Brazil
Elevation: 2025 ft.
Wikipedia:

Photos at Bauru Airport


   Photos courtesy of SpottingLog. You can add your own sightings and photos by signing up for a free trial today.



No photos found.

Weather at Bauru Airport


Time (UTC)DescriptionTempratureWindCloud coverageVisibilityPressureHumidity
18-Apr-2024 00:00Light Rain24°C4 mph, SW40%10000m1015hPa94%
18-Apr-2024 03:00Broken Clouds23°C2 mph, S60%10000m1015hPa95%
18-Apr-2024 06:00Broken Clouds22°C7 mph, SE80%10000m1014hPa96%
18-Apr-2024 09:00Overcast Clouds20°C7 mph, SE100%10000m1015hPa95%
18-Apr-2024 12:00Overcast Clouds21°C9 mph, SE100%10000m1017hPa86%
18-Apr-2024 15:00Overcast Clouds25°C9 mph, SE100%10000m1015hPa63%
18-Apr-2024 18:00Overcast Clouds25°C7 mph, SE100%10000m1014hPa65%
18-Apr-2024 21:00Overcast Clouds23°C4 mph, SE100%10000m1015hPa72%
19-Apr-2024 00:00Overcast Clouds19°C7 mph, SE85%10000m1017hPa82%
19-Apr-2024 03:00Clear Sky17°C7 mph, SE0%10000m1017hPa91%
19-Apr-2024 06:00Clear Sky15°C7 mph, SE0%10000m1017hPa89%
19-Apr-2024 09:00Clear Sky14°C7 mph, SE0%10000m1017hPa89%
19-Apr-2024 12:00Clear Sky19°C11 mph, SE6%10000m1018hPa70%
19-Apr-2024 15:00Few Clouds26°C7 mph, E14%10000m1016hPa56%
19-Apr-2024 18:00Clear Sky28°C4 mph, E10%10000m1014hPa49%
19-Apr-2024 21:00Clear Sky22°C4 mph, SE0%10000m1014hPa70%
20-Apr-2024 00:00Clear Sky20°C9 mph, SE0%10000m1016hPa71%
20-Apr-2024 03:00Clear Sky18°C11 mph, SE0%10000m1017hPa78%
20-Apr-2024 06:00Clear Sky17°C9 mph, SE0%10000m1017hPa82%
20-Apr-2024 09:00Clear Sky16°C7 mph, SE1%10000m1018hPa88%
20-Apr-2024 12:00Clear Sky21°C9 mph, E1%10000m1019hPa71%
20-Apr-2024 15:00Clear Sky27°C7 mph, E0%10000m1017hPa52%
20-Apr-2024 18:00Clear Sky30°C2 mph, E0%10000m1014hPa45%
20-Apr-2024 21:00Clear Sky24°C2 mph, SE0%10000m1014hPa66%
21-Apr-2024 00:00Clear Sky21°C4 mph, SE0%10000m1016hPa76%
21-Apr-2024 03:00Clear Sky20°C7 mph, SE0%10000m1017hPa80%
21-Apr-2024 06:00Clear Sky18°C7 mph, SE0%10000m1016hPa87%
21-Apr-2024 09:00Clear Sky17°C7 mph, SE0%10000m1016hPa92%
21-Apr-2024 12:00Clear Sky22°C7 mph, E0%10000m1017hPa68%
21-Apr-2024 15:00Clear Sky29°C4 mph, E0%10000m1015hPa45%
21-Apr-2024 18:00Clear Sky31°C0 mph, NW0%10000m1012hPa34%
21-Apr-2024 21:00Clear Sky24°C4 mph, S2%10000m1013hPa53%
22-Apr-2024 00:00Clear Sky22°C4 mph, S0%10000m1014hPa57%
22-Apr-2024 03:00Clear Sky20°C4 mph, SE0%10000m1014hPa68%
22-Apr-2024 06:00Clear Sky18°C4 mph, E4%10000m1014hPa75%
22-Apr-2024 09:00Clear Sky18°C4 mph, E0%10000m1015hPa80%
22-Apr-2024 12:00Clear Sky24°C4 mph, E0%10000m1016hPa59%
22-Apr-2024 15:00Clear Sky30°C4 mph, NE0%10000m1014hPa42%
22-Apr-2024 18:00Clear Sky31°C4 mph, W0%10000m1011hPa34%
22-Apr-2024 21:00Clear Sky24°C4 mph, SW6%10000m1012hPa54%